Stillwater Regional Airport
KSWO : now visible

Airfield :











YOU CAN JOIN US ON...

 
LOGIN :

Register | Disclaimer

   EN    FR    IT 

 









Legend :    VFR   Marginal VFR   IFR   Intensive IFR   Very Intensive IFR
Visi :
Ceiling :
>= 8 km
>= 3000ft
5 to 8 km
1000 to 3000 ft
1500m to 5 km
500 to 1000 ft
800 to 1500m
200 to 500 ft
< 800m
< 200 ft
Symbols :   Thunderstorms  Fog  Heavy snow  Heavy precipitations  Wind > 20 kt






- Airport Elevation : 1000 ft


KSWO - Stillwater Regional

CURRENT METAR :
  • 221053Z AUTO 19003KT 10SM CLR 14/12 A3005 RMK AO2 SLP168 T01390122

EXPIRED METARs :
  • 221020Z AUTO 00000KT 10SM CLR 13/12 A3005 RMK AO2 T01330122
  • 220953Z AUTO 27004KT 3/4SM BR CLR 13/12 A3005 RMK AO2 SLP167 T01330117
  • 220927Z AUTO 26003KT 1/2SM FG CLR 14/13 A3005 RMK AO2 T01390128
  • 220915Z AUTO 00000KT 1SM BR CLR 14/13 A3005 RMK AO2 T01440128
  • 220853Z AUTO 27003KT 1/2SM FG CLR 14/13 A3005 RMK AO2 SLP168 T01390128 56003
  • 220753Z AUTO 00000KT 3/4SM BR CLR 14/13 A3005 RMK AO2 SLP169 T01440128

TAF KSWO
Valid from the 22 at 08:00 until the 23 at 06:00 UTC


220755Z 2208/2306 19003KT P6SM SKC
TEMPO 2209/2213 5SM BR
FM221500 16012KT P6SM FEW150 AMD NOT SKED
KZKC FIR / North America



MET'MAP, your aeronautical weather chart ! - Copyright ORBIFLY December 2007 - Disclaimer

ORBIFLY MET'MAP TEAM :

Programming & Development : Alexandra Zaïnal
Concept & original design : Baudouin d'Aumeries
Assistance for programming : Marc-Olivier Méhu
Technical & hardware support : Manuel Goepfert

Contact : metmap@orbifly.com




SOURCES & CREDITS :

   NOAA       Earth
Advisory